Time;durP1;ratioP1;P1;durP2;ratioP2;P2;SDS_P1;SDS_P2;PMS_P1;PMS_P2;Temp;Humidity;BMP_temperature;BMP_pressure;BME280_temperature;BME280_humidity;BME280_pressure;Samples;Min_cycle;Max_cycle;Signal;HPM_P1;HPM_P2
2023/10/25 00:01:43;;;;;;;1.65;1.60;;;13.00;99.90;;;;;;5059896;28;20251;-75
2023/10/25 00:04:10;;;;;;;1.42;1.42;;;13.00;99.90;;;;;;5061244;28;20635;-77
2023/10/25 00:06:38;;;;;;;2.05;1.95;;;13.00;99.90;;;;;;5062711;28;20256;-76
2023/10/25 00:09:06;;;;;;;1.80;1.70;;;13.00;99.90;;;;;;5060584;28;20287;-77
2023/10/25 00:11:33;;;;;;;2.05;1.95;;;13.00;99.90;;;;;;5064281;28;20202;-76
2023/10/25 00:14:01;;;;;;;1.98;1.88;;;13.00;99.90;;;;;;5063025;28;20206;-77
2023/10/25 00:16:28;;;;;;;1.60;1.60;;;13.00;99.90;;;;;;5057789;28;20215;-76
2023/10/25 00:18:55;;;;;;;1.77;1.67;;;13.00;99.90;;;;;;5061004;28;20227;-75
2023/10/25 00:21:22;;;;;;;1.35;1.35;;;13.00;99.90;;;;;;5061645;28;20248;-76
2023/10/25 00:23:49;;;;;;;1.50;1.50;;;13.00;99.90;;;;;;5059857;28;20194;-76
2023/10/25 00:26:17;;;;;;;1.40;1.40;;;13.00;99.90;;;;;;5057592;28;20294;-77
2023/10/25 00:28:44;;;;;;;1.90;1.80;;;13.00;99.90;;;;;;5058589;28;20631;-76
2023/10/25 00:31:12;;;;;;;1.58;1.50;;;13.00;99.90;;;;;;5059068;28;20198;-77
2023/10/25 00:33:39;;;;;;;1.80;1.70;;;13.10;99.90;;;;;;5060941;28;20199;-77
2023/10/25 00:36:07;;;;;;;1.63;1.60;;;13.10;99.90;;;;;;5060527;28;20214;-76
2023/10/25 00:38:34;;;;;;;1.30;1.30;;;13.10;99.90;;;;;;5062407;28;20226;-76
2023/10/25 00:41:01;;;;;;;1.58;1.58;;;13.10;99.90;;;;;;5057563;28;20592;-76
2023/10/25 00:43:29;;;;;;;1.23;1.23;;;13.10;99.90;;;;;;5064239;28;20194;-74
2023/10/25 00:46:05;;;;;;;1.60;1.60;;;13.10;99.90;;;;;;5065058;28;20229;-76
2023/10/25 00:48:33;;;;;;;1.33;1.33;;;13.10;99.90;;;;;;5065043;28;20222;-75
2023/10/25 00:51:00;;;;;;;1.55;1.55;;;13.10;99.90;;;;;;5059251;28;20256;-76
2023/10/25 00:53:29;;;;;;;1.48;1.48;;;13.10;99.90;;;;;;5060794;28;20233;-76
2023/10/25 00:55:58;;;;;;;1.40;1.40;;;13.10;99.90;;;;;;5062992;28;20202;-76
2023/10/25 00:58:26;;;;;;;1.40;1.40;;;13.10;99.90;;;;;;5064903;28;20252;-76
2023/10/25 01:00:55;;;;;;;1.30;1.30;;;13.10;99.90;;;;;;5064148;28;20256;-76
2023/10/25 01:03:23;;;;;;;1.40;1.40;;;13.10;99.90;;;;;;5062516;28;20213;-76
2023/10/25 01:05:50;;;;;;;1.38;1.38;;;13.10;99.90;;;;;;5062884;28;20259;-76
2023/10/25 01:08:18;;;;;;;1.17;1.17;;;13.10;99.90;;;;;;5065053;28;20301;-76
2023/10/25 01:10:46;;;;;;;1.63;1.52;;;13.10;99.90;;;;;;5066436;28;20745;-76
2023/10/25 01:13:12;;;;;;;1.50;1.50;;;13.10;99.90;;;;;;5061431;28;20774;-79
2023/10/25 01:15:39;;;;;;;1.33;1.30;;;13.10;99.90;;;;;;5067617;28;20244;-76
2023/10/25 01:18:08;;;;;;;1.42;1.42;;;13.20;99.90;;;;;;5062811;28;20226;-77
2023/10/25 01:20:37;;;;;;;1.40;1.40;;;13.20;99.90;;;;;;5062186;28;20198;-77
2023/10/25 01:23:05;;;;;;;1.50;1.40;;;13.10;99.90;;;;;;5060364;28;20293;-76
2023/10/25 01:25:32;;;;;;;1.30;1.30;;;13.20;99.90;;;;;;5061306;28;20199;-74
2023/10/25 01:27:59;;;;;;;1.38;1.38;;;13.20;99.90;;;;;;5064762;28;20267;-76
2023/10/25 01:30:26;;;;;;;1.50;1.50;;;13.20;99.90;;;;;;5063617;28;20267;-76
2023/10/25 01:32:53;;;;;;;1.30;1.27;;;13.20;99.90;;;;;;5060278;28;20629;-76
2023/10/25 01:35:21;;;;;;;1.20;1.20;;;13.20;99.90;;;;;;5062683;28;20296;-76
2023/10/25 01:37:48;;;;;;;1.30;1.30;;;13.20;99.90;;;;;;5059157;28;20291;-75
2023/10/25 01:40:16;;;;;;;1.50;1.50;;;13.20;99.90;;;;;;5060628;28;20210;-75
2023/10/25 01:42:43;;;;;;;1.17;1.17;;;13.20;99.90;;;;;;5058479;28;20718;-75
2023/10/25 01:45:10;;;;;;;1.02;1.02;;;13.20;99.90;;;;;;5061847;28;20207;-75
2023/10/25 01:47:38;;;;;;;1.27;1.27;;;13.20;99.90;;;;;;5058570;28;20687;-76
2023/10/25 01:50:06;;;;;;;1.30;1.30;;;13.20;99.90;;;;;;5057019;28;20203;-76
2023/10/25 01:52:33;;;;;;;1.40;1.30;;;13.20;99.90;;;;;;5060281;28;20268;-75
2023/10/25 01:55:00;;;;;;;1.20;1.20;;;13.20;99.90;;;;;;5062421;28;20559;-76
2023/10/25 01:57:28;;;;;;;1.40;1.40;;;13.20;99.90;;;;;;5063682;28;20268;-76
2023/10/25 01:59:55;;;;;;;1.27;1.27;;;13.20;99.90;;;;;;5059859;28;20287;-74
2023/10/25 02:02:22;;;;;;;1.30;1.30;;;13.20;99.90;;;;;;5064477;28;20220;-77
2023/10/25 02:04:49;;;;;;;1.70;1.60;;;13.20;99.90;;;;;;5064900;28;20210;-77
2023/10/25 02:07:16;;;;;;;1.33;1.30;;;13.20;99.90;;;;;;5064380;28;20190;-75
2023/10/25 02:09:43;;;;;;;1.67;1.58;;;13.20;99.90;;;;;;5061426;28;20308;-75
2023/10/25 02:12:10;;;;;;;1.58;1.50;;;13.20;99.90;;;;;;5063818;28;20208;-76
2023/10/25 02:14:38;;;;;;;1.55;1.45;;;13.20;99.90;;;;;;5063675;28;20202;-75
2023/10/25 02:17:05;;;;;;;1.52;1.42;;;13.20;99.90;;;;;;5064372;28;20268;-77
2023/10/25 02:19:33;;;;;;;1.50;1.40;;;13.20;99.90;;;;;;5059999;28;20221;-75
2023/10/25 02:22:00;;;;;;;1.50;1.50;;;13.20;99.90;;;;;;5063911;28;20289;-76
2023/10/25 02:24:27;;;;;;;1.65;1.58;;;13.20;99.90;;;;;;5062690;28;20199;-75
2023/10/25 02:26:54;;;;;;;1.60;1.55;;;13.20;99.90;;;;;;5061209;28;20203;-74
2023/10/25 02:29:21;;;;;;;1.70;1.60;;;13.20;99.90;;;;;;5060353;28;20222;-77
2023/10/25 02:31:49;;;;;;;1.40;1.40;;;13.20;99.90;;;;;;5064783;28;20202;-75
2023/10/25 02:34:16;;;;;;;1.35;1.35;;;13.20;99.90;;;;;;5064344;28;20245;-76
2023/10/25 02:36:43;;;;;;;1.55;1.55;;;13.20;99.90;;;;;;5062035;28;20623;-75
2023/10/25 02:39:10;;;;;;;1.70;1.60;;;13.20;99.90;;;;;;5062479;28;20222;-76
2023/10/25 02:41:38;;;;;;;2.05;1.95;;;13.20;99.90;;;;;;5064045;28;20235;-77
2023/10/25 02:44:05;;;;;;;2.00;1.90;;;13.10;99.90;;;;;;5061261;28;20194;-76
2023/10/25 02:46:32;;;;;;;1.90;1.80;;;13.10;99.90;;;;;;5061934;28;20202;-75
2023/10/25 02:49:00;;;;;;;1.67;1.65;;;13.10;99.90;;;;;;5063043;28;20213;-77
2023/10/25 02:51:27;;;;;;;1.88;1.77;;;13.10;99.90;;;;;;5064589;28;20252;-76
2023/10/25 02:53:54;;;;;;;1.65;1.63;;;13.10;99.90;;;;;;5064359;28;20260;-76
2023/10/25 02:56:21;;;;;;;2.00;1.90;;;13.10;99.90;;;;;;5063603;28;20251;-77
2023/10/25 02:58:48;;;;;;;1.65;1.60;;;13.10;99.90;;;;;;5065015;28;20229;-76
2023/10/25 03:01:23;;;;;;;1.52;1.42;;;13.10;99.90;;;;;;5063300;28;20195;-75
2023/10/25 03:03:50;;;;;;;1.80;1.70;;;13.10;99.90;;;;;;5064637;28;20549;-76
2023/10/25 03:06:19;;;;;;;1.48;1.40;;;13.10;99.90;;;;;;5067847;28;20720;-76
2023/10/25 03:08:46;;;;;;;1.30;1.30;;;13.10;99.90;;;;;;5064130;28;20707;-76
2023/10/25 03:11:13;;;;;;;1.42;1.40;;;13.10;99.90;;;;;;5063808;28;20211;-77
2023/10/25 03:13:40;;;;;;;1.38;1.38;;;13.20;99.90;;;;;;5063122;28;20207;-76
2023/10/25 03:16:07;;;;;;;1.25;1.25;;;13.20;99.90;;;;;;5064674;28;20202;-77
2023/10/25 03:18:34;;;;;;;1.58;1.48;;;13.20;99.90;;;;;;5063139;28;20742;-79
2023/10/25 03:21:02;;;;;;;1.33;1.33;;;13.20;99.90;;;;;;5066643;28;20251;-76
2023/10/25 03:23:32;;;;;;;1.20;1.20;;;13.20;99.90;;;;;;5066050;28;20195;-77
2023/10/25 03:26:04;;;;;;;1.30;1.30;;;13.20;99.90;;;;;;5063777;28;20210;-76
2023/10/25 03:28:31;;;;;;;1.20;1.20;;;13.20;99.90;;;;;;5065718;28;20221;-75
2023/10/25 03:30:58;;;;;;;1.40;1.30;;;13.20;99.90;;;;;;5066484;28;20203;-76
2023/10/25 03:33:25;;;;;;;1.40;1.40;;;13.20;99.90;;;;;;5066602;28;20202;-77
2023/10/25 03:35:53;;;;;;;1.40;1.40;;;13.10;99.90;;;;;;5063983;28;20194;-77
2023/10/25 03:38:20;;;;;;;1.38;1.33;;;13.10;99.90;;;;;;5066247;28;20222;-76
2023/10/25 03:40:49;;;;;;;1.40;1.40;;;13.10;99.90;;;;;;5065562;28;20203;-77
2023/10/25 03:43:16;;;;;;;1.30;1.30;;;13.10;99.90;;;;;;5066399;28;20214;-76
2023/10/25 03:45:43;;;;;;;1.85;1.75;;;13.10;99.90;;;;;;5063702;28;20199;-75
2023/10/25 03:48:09;;;;;;;1.50;1.40;;;13.10;99.90;;;;;;5064426;28;20214;-75
2023/10/25 03:50:37;;;;;;;1.90;1.80;;;13.10;99.90;;;;;;5063885;28;20250;-76
2023/10/25 03:53:05;;;;;;;1.65;1.63;;;13.10;99.90;;;;;;5063870;28;20294;-75
2023/10/25 03:55:32;;;;;;;1.67;1.58;;;13.10;99.90;;;;;;5067778;28;20202;-75
2023/10/25 03:58:00;;;;;;;1.80;1.70;;;13.10;99.90;;;;;;5065133;28;20221;-77
2023/10/25 04:00:28;;;;;;;1.70;1.60;;;13.10;99.90;;;;;;5065079;28;20206;-75
2023/10/25 04:02:55;;;;;;;2.20;2.10;;;13.10;99.90;;;;;;5066088;28;20664;-76
2023/10/25 04:05:22;;;;;;;2.22;2.13;;;13.00;99.90;;;;;;5063802;28;20229;-77
2023/10/25 04:07:52;;;;;;;2.42;2.33;;;13.00;99.90;;;;;;5067909;28;20207;-77
2023/10/25 04:10:19;;;;;;;2.50;2.40;;;13.00;99.90;;;;;;5066297;28;20207;-75
2023/10/25 04:12:46;;;;;;;3.13;2.92;;;13.00;99.90;;;;;;5064090;28;20233;-76
2023/10/25 04:15:14;;;;;;;2.70;2.60;;;13.00;99.90;;;;;;5060446;28;20202;-76
2023/10/25 04:17:41;;;;;;;2.92;2.75;;;13.00;99.90;;;;;;5062329;28;20214;-76
2023/10/25 04:20:09;;;;;;;2.58;2.47;;;13.00;99.90;;;;;;5063490;28;20576;-76
2023/10/25 04:22:37;;;;;;;2.60;2.50;;;13.00;99.90;;;;;;5063001;28;20198;-76
2023/10/25 04:25:05;;;;;;;2.35;2.25;;;13.00;99.90;;;;;;5062324;28;20653;-77
2023/10/25 04:27:32;;;;;;;2.20;2.10;;;13.00;99.90;;;;;;5063883;28;20199;-76
2023/10/25 04:29:59;;;;;;;2.20;2.10;;;13.00;99.90;;;;;;5065078;28;20264;-75
2023/10/25 04:32:27;;;;;;;2.40;2.30;;;13.00;99.90;;;;;;5062442;28;20213;-77
2023/10/25 04:34:54;;;;;;;2.20;2.10;;;13.00;99.90;;;;;;5069895;28;20199;-76
2023/10/25 04:37:21;;;;;;;2.15;2.05;;;13.10;99.90;;;;;;5067287;28;20289;-76
2023/10/25 04:39:48;;;;;;;1.63;1.55;;;13.00;99.90;;;;;;5062995;28;20222;-76
2023/10/25 04:42:15;;;;;;;1.70;1.60;;;13.00;99.90;;;;;;5065444;28;20194;-76
2023/10/25 04:44:42;;;;;;;1.67;1.60;;;13.00;99.90;;;;;;5064301;28;20194;-76
2023/10/25 04:47:10;;;;;;;1.38;1.35;;;13.00;99.90;;;;;;5064724;28;20659;-77
2023/10/25 04:49:39;;;;;;;1.42;1.42;;;13.00;99.90;;;;;;5063723;28;20268;-78
2023/10/25 04:52:06;;;;;;;1.90;1.80;;;13.00;99.90;;;;;;5064642;28;20289;-77
2023/10/25 04:54:33;;;;;;;1.48;1.38;;;13.00;99.90;;;;;;5065935;28;20206;-76
2023/10/25 04:57:00;;;;;;;2.08;1.98;;;13.00;99.90;;;;;;5064347;28;20205;-76
2023/10/25 04:59:29;;;;;;;2.08;1.98;;;13.00;99.90;;;;;;5068011;28;20230;-76
2023/10/25 05:01:56;;;;;;;2.20;2.10;;;13.00;99.90;;;;;;5064218;28;20203;-77
2023/10/25 05:04:23;;;;;;;2.30;2.20;;;13.00;99.90;;;;;;5064506;28;20260;-77
2023/10/25 05:06:51;;;;;;;2.45;2.25;;;13.00;99.90;;;;;;5063242;28;20199;-77
2023/10/25 05:09:19;;;;;;;1.80;1.70;;;13.00;99.90;;;;;;5066987;28;20222;-77
2023/10/25 05:11:55;;;;;;;2.50;2.40;;;13.00;99.90;;;;;;5069411;28;20248;-76
2023/10/25 05:14:22;;;;;;;2.28;2.17;;;13.00;99.90;;;;;;5062578;28;20259;-76
2023/10/25 05:16:50;;;;;;;2.40;2.30;;;13.00;99.90;;;;;;5062312;28;20195;-77
2023/10/25 05:19:17;;;;;;;2.80;2.60;;;13.00;99.90;;;;;;5063323;28;20226;-77
2023/10/25 05:21:47;;;;;;;3.10;2.83;;;13.00;99.90;;;;;;5066042;28;20202;-79
2023/10/25 05:24:17;;;;;;;2.65;2.55;;;13.00;99.90;;;;;;5064379;28;20300;-78
2023/10/25 05:26:44;;;;;;;2.90;2.70;;;12.90;99.90;;;;;;5065823;28;20202;-76
2023/10/25 05:29:12;;;;;;;5.82;3.03;;;12.90;99.90;;;;;;5062073;28;20214;-77
2023/10/25 05:31:42;;;;;;;2.80;2.50;;;12.90;99.90;;;;;;5059892;28;20572;-77
2023/10/25 05:34:10;;;;;;;3.67;2.60;;;12.90;99.90;;;;;;5062993;28;20555;-76
2023/10/25 05:36:38;;;;;;;2.75;2.65;;;12.90;99.90;;;;;;5064408;28;20252;-77
2023/10/25 05:39:06;;;;;;;2.97;2.78;;;12.90;99.90;;;;;;5063676;28;20926;-76
2023/10/25 05:41:40;;;;;;;3.03;2.83;;;12.90;99.90;;;;;;5065723;28;20737;-77
2023/10/25 05:44:13;;;;;;;3.75;3.33;;;12.90;99.90;;;;;;5067623;28;20259;-75
2023/10/25 05:46:40;;;;;;;3.63;3.28;;;12.80;99.90;;;;;;5060711;28;20206;-76
2023/10/25 05:49:08;;;;;;;3.50;3.30;;;12.80;99.90;;;;;;5064051;28;20291;-76
2023/10/25 05:51:35;;;;;;;3.15;2.85;;;12.80;99.90;;;;;;5062523;28;20256;-77
2023/10/25 05:54:03;;;;;;;3.22;3.03;;;12.80;99.90;;;;;;5054983;28;20254;-76
2023/10/25 05:56:30;;;;;;;2.80;2.60;;;12.80;99.90;;;;;;5052989;28;20207;-78
2023/10/25 05:58:59;;;;;;;4.15;3.20;;;12.90;99.90;;;;;;5055490;28;20230;-76
2023/10/25 06:01:32;;;;;;;6.13;2.97;;;12.90;99.90;;;;;;5056835;28;20776;-77
2023/10/25 06:04:00;;;;;;;11.27;3.30;;;12.90;99.90;;;;;;5057692;28;20201;-76
2023/10/25 06:06:28;;;;;;;2.50;2.30;;;12.90;99.90;;;;;;5059547;28;20322;-77
2023/10/25 06:08:55;;;;;;;7.68;2.35;;;12.90;99.90;;;;;;5058914;28;20215;-76
2023/10/25 06:11:23;;;;;;;2.22;2.13;;;12.90;99.90;;;;;;5056235;28;20248;-78
2023/10/25 06:13:50;;;;;;;2.25;2.15;;;12.90;99.90;;;;;;5056527;28;20203;-76
2023/10/25 06:16:18;;;;;;;3.10;2.03;;;12.90;99.90;;;;;;5056323;28;20198;-77
2023/10/25 06:18:45;;;;;;;38.78;3.15;;;12.90;99.90;;;;;;5053085;28;20226;-77
2023/10/25 06:21:12;;;;;;;23.80;2.80;;;12.80;99.90;;;;;;5058336;28;20290;-77
2023/10/25 06:23:39;;;;;;;25.50;3.90;;;12.80;99.90;;;;;;5060218;28;20668;-77
2023/10/25 06:26:06;;;;;;;85.05;5.72;;;12.80;99.90;;;;;;5056674;28;20324;-75
2023/10/25 06:28:34;;;;;;;41.60;4.75;;;12.80;99.90;;;;;;5061471;28;20839;-76
2023/10/25 06:31:01;;;;;;;38.15;4.47;;;12.80;99.90;;;;;;5066079;28;20638;-76
2023/10/25 06:33:30;;;;;;;7.18;3.17;;;12.70;99.90;;;;;;5058175;28;20203;-75
2023/10/25 06:36:01;;;;;;;8.27;2.95;;;12.70;99.90;;;;;;5063306;28;20195;-77
2023/10/25 06:38:28;;;;;;;49.50;4.65;;;12.70;99.90;;;;;;5062517;28;20768;-77
2023/10/25 06:40:56;;;;;;;162.40;7.72;;;12.70;99.90;;;;;;5063959;28;20195;-77
2023/10/25 06:43:24;;;;;;;236.50;7.63;;;12.70;99.90;;;;;;5060649;28;20606;-76
2023/10/25 06:45:51;;;;;;;229.40;9.73;;;12.70;99.90;;;;;;5057631;28;20292;-76
2023/10/25 06:48:19;;;;;;;121.75;8.45;;;12.70;99.90;;;;;;5062828;28;20214;-79
2023/10/25 06:50:48;;;;;;;20.73;2.97;;;12.60;99.90;;;;;;5062378;28;20198;-77
2023/10/25 06:53:16;;;;;;;5.07;2.20;;;12.60;99.90;;;;;;5063028;28;20259;-77
2023/10/25 06:55:43;;;;;;;209.57;10.82;;;12.50;99.90;;;;;;5060931;28;20195;-75
2023/10/25 06:58:11;;;;;;;12.52;3.40;;;12.50;99.90;;;;;;5059477;28;20218;-77
2023/10/25 07:00:39;;;;;;;112.55;6.57;;;12.50;99.90;;;;;;5060041;28;20225;-77
2023/10/25 07:03:11;;;;;;;117.22;7.88;;;12.50;99.90;;;;;;5061755;28;20841;-77
2023/10/25 07:05:42;;;;;;;60.53;5.70;;;12.50;99.90;;;;;;5064386;28;20564;-76
2023/10/25 07:08:11;;;;;;;139.68;9.90;;;12.50;99.90;;;;;;5061790;28;20955;-76
2023/10/25 07:10:39;;;;;;;58.13;6.05;;;12.50;99.90;;;;;;5057960;28;20202;-76
2023/10/25 07:13:06;;;;;;;1425.70;51.10;;;12.50;99.90;;;;;;5061955;28;20210;-75
2023/10/25 07:15:35;;;;;;;333.15;16.55;;;12.40;99.90;;;;;;5060959;28;20241;-77
2023/10/25 07:18:02;;;;;;;353.23;14.35;;;12.40;99.90;;;;;;5060282;28;20221;-78
2023/10/25 07:20:29;;;;;;;408.13;17.13;;;12.30;99.90;;;;;;5060879;28;20202;-76
2023/10/25 07:22:56;;;;;;;877.17;30.73;;;12.30;99.90;;;;;;5062258;28;20206;-77
2023/10/25 07:25:24;;;;;;;34.38;4.35;;;12.30;99.90;;;;;;5057454;28;20198;-77
2023/10/25 07:27:51;;;;;;;12.90;2.55;;;12.30;99.90;;;;;;5057839;28;20214;-77
2023/10/25 07:30:18;;;;;;;273.70;12.70;;;12.30;99.90;;;;;;5058928;28;20252;-76
2023/10/25 07:32:45;;;;;;;79.53;4.85;;;12.30;99.90;;;;;;5056807;28;20260;-76
2023/10/25 07:35:12;;;;;;;6.20;2.78;;;12.30;99.90;;;;;;5057393;28;20202;-75
2023/10/25 07:37:39;;;;;;;340.10;17.48;;;12.20;99.90;;;;;;5059365;28;20199;-76
2023/10/25 07:40:08;;;;;;;181.27;8.50;;;12.20;99.90;;;;;;5058958;28;20219;-78
2023/10/25 07:42:36;;;;;;;2.42;2.33;;;12.20;99.90;;;;;;5059715;28;20195;-77
2023/10/25 07:45:04;;;;;;;2.50;2.40;;;12.20;99.90;;;;;;5063321;28;20198;-77
2023/10/25 07:47:31;;;;;;;33.65;5.07;;;12.20;99.90;;;;;;5059846;28;20281;-77
2023/10/25 07:49:57;;;;;;;60.15;4.88;;;12.30;99.90;;;;;;5063582;28;20214;-76
2023/10/25 07:52:25;;;;;;;8.98;3.20;;;12.30;99.90;;;;;;5060705;28;20638;-76
2023/10/25 07:54:52;;;;;;;25.00;3.65;;;12.30;99.90;;;;;;5062586;28;20202;-78
2023/10/25 07:57:19;;;;;;;11.35;3.28;;;12.30;99.90;;;;;;5062145;28;20737;-78
2023/10/25 07:59:47;;;;;;;100.30;5.70;;;12.20;99.90;;;;;;5059467;28;20222;-77
2023/10/25 08:02:14;;;;;;;5.47;2.78;;;12.30;99.90;;;;;;5058988;28;20206;-75
2023/10/25 08:04:42;;;;;;;7.03;3.08;;;12.30;99.90;;;;;;5060078;28;20209;-77
2023/10/25 08:07:10;;;;;;;10.48;2.75;;;12.30;99.90;;;;;;5059599;28;20289;-78
2023/10/25 08:09:39;;;;;;;7.32;2.85;;;12.40;99.90;;;;;;5060201;28;20217;-78
2023/10/25 08:12:07;;;;;;;5.32;3.38;;;12.40;99.90;;;;;;5058233;28;20206;-77
2023/10/25 08:14:34;;;;;;;3.42;3.15;;;12.40;99.90;;;;;;5056264;28;20198;-76
2023/10/25 08:17:02;;;;;;;4.00;3.03;;;12.40;99.90;;;;;;5054831;28;20210;-76
2023/10/25 08:19:30;;;;;;;3.50;3.30;;;12.50;99.90;;;;;;5054385;28;20252;-77
2023/10/25 08:21:56;;;;;;;3.30;3.10;;;12.50;99.90;;;;;;5058100;28;20202;-77
2023/10/25 08:24:24;;;;;;;7.88;5.32;;;12.50;99.90;;;;;;5060870;28;20573;-77
2023/10/25 08:26:53;;;;;;;4.13;3.72;;;12.60;99.90;;;;;;5060218;28;20886;-76
2023/10/25 08:29:20;;;;;;;4.43;3.63;;;12.60;99.90;;;;;;5060766;28;20218;-77
2023/10/25 08:31:47;;;;;;;4.00;3.60;;;12.70;99.90;;;;;;5059551;28;20924;-79
2023/10/25 08:34:20;;;;;;;4.22;3.83;;;12.70;99.90;;;;;;5060962;28;20198;-77
2023/10/25 08:36:49;;;;;;;3.50;3.30;;;12.80;99.90;;;;;;5057444;28;20206;-77
2023/10/25 08:39:16;;;;;;;3.85;3.03;;;12.80;99.90;;;;;;5054718;28;22912;-76
2023/10/25 08:41:48;;;;;;;10.18;3.42;;;12.80;99.90;;;;;;5053571;28;20732;-76
2023/10/25 08:44:15;;;;;;;3.35;3.08;;;12.80;99.90;;;;;;5038492;28;20194;-77
2023/10/25 08:46:43;;;;;;;2.97;2.78;;;12.80;99.90;;;;;;5051994;28;21258;-76
2023/10/25 08:49:11;;;;;;;9.55;3.03;;;12.80;99.90;;;;;;5060388;28;20218;-76
2023/10/25 08:51:42;;;;;;;2.80;2.60;;;12.80;99.90;;;;;;5056057;28;20198;-75
2023/10/25 08:54:09;;;;;;;7.07;3.00;;;12.80;99.90;;;;;;5057534;28;20210;-76
2023/10/25 08:56:36;;;;;;;143.88;8.20;;;12.80;99.90;;;;;;5057409;28;20195;-78
2023/10/25 08:59:05;;;;;;;5.50;2.35;;;12.90;99.90;;;;;;5063721;28;20221;-76
2023/10/25 09:01:32;;;;;;;5.03;2.88;;;12.90;99.90;;;;;;5062466;28;20204;-78
2023/10/25 09:04:06;;;;;;;3.15;2.85;;;13.00;99.90;;;;;;5062616;28;20208;-78
2023/10/25 09:06:33;;;;;;;2.80;2.60;;;13.00;99.90;;;;;;5056564;28;20738;-75
2023/10/25 09:09:05;;;;;;;3.20;3.00;;;13.00;99.90;;;;;;5055165;28;20222;-78
2023/10/25 09:11:40;;;;;;;2.85;2.63;;;13.00;99.90;;;;;;5060178;28;20281;-76
2023/10/25 09:14:07;;;;;;;3.08;2.88;;;13.00;99.90;;;;;;5061229;28;20285;-76
2023/10/25 09:16:34;;;;;;;3.65;3.42;;;13.10;99.90;;;;;;5062058;28;20262;-76
2023/10/25 09:19:03;;;;;;;3.72;3.50;;;13.10;99.90;;;;;;5060262;28;20245;-77
2023/10/25 09:21:30;;;;;;;3.33;3.13;;;13.10;99.90;;;;;;5062193;28;20234;-78
2023/10/25 09:23:59;;;;;;;3.20;3.00;;;13.20;99.90;;;;;;5060683;28;20260;-77
2023/10/25 09:26:34;;;;;;;2.95;2.75;;;13.30;99.90;;;;;;5056704;28;20785;-77
2023/10/25 09:29:01;;;;;;;3.22;2.97;;;13.30;99.90;;;;;;5060170;28;20225;-77
2023/10/25 09:31:31;;;;;;;3.63;3.33;;;13.40;99.90;;;;;;5058843;28;20259;-76
2023/10/25 09:33:59;;;;;;;2.55;2.45;;;13.40;99.90;;;;;;5058216;28;20243;-76
2023/10/25 09:36:27;;;;;;;2.80;2.63;;;13.30;99.90;;;;;;5062181;28;20652;-76
2023/10/25 09:38:55;;;;;;;2.22;2.13;;;13.30;99.90;;;;;;5060925;28;20222;-76
2023/10/25 09:41:22;;;;;;;2.42;2.30;;;13.30;99.90;;;;;;5057475;28;20202;-78
2023/10/25 09:43:51;;;;;;;2.38;2.28;;;13.30;99.90;;;;;;5055825;28;20308;-76
2023/10/25 09:46:21;;;;;;;3.10;2.90;;;13.40;99.90;;;;;;5059122;28;20206;-78
2023/10/25 09:48:56;;;;;;;2.38;2.28;;;13.40;99.90;;;;;;5058861;28;20219;-76
2023/10/25 09:51:33;;;;;;;2.85;2.65;;;13.40;99.90;;;;;;5057790;28;20293;-76
2023/10/25 09:54:07;;;;;;;2.88;2.47;;;13.40;99.90;;;;;;5055354;28;20235;-76
2023/10/25 09:56:36;;;;;;;2.78;2.58;;;13.60;99.90;;;;;;5053043;28;20206;-76
2023/10/25 09:59:06;;;;;;;2.60;2.50;;;13.70;99.90;;;;;;5055212;28;20279;-77
2023/10/25 10:01:33;;;;;;;2.65;2.55;;;13.80;99.90;;;;;;5055104;28;20298;-77
2023/10/25 10:04:10;;;;;;;2.85;2.65;;;13.90;99.90;;;;;;5052919;28;20620;-77
2023/10/25 10:06:45;;;;;;;3.00;2.80;;;14.10;99.90;;;;;;5053542;28;20205;-76
2023/10/25 10:09:20;;;;;;;3.10;2.90;;;14.00;99.90;;;;;;5054985;28;20267;-75
2023/10/25 10:11:53;;;;;;;3.53;3.22;;;14.00;99.90;;;;;;5054459;28;20641;-76
2023/10/25 10:14:31;;;;;;;3.63;3.40;;;13.90;99.90;;;;;;5033972;28;20203;-76
2023/10/25 10:16:59;;;;;;;4.18;3.88;;;13.80;99.90;;;;;;5037393;28;20712;-76
2023/10/25 10:19:25;;;;;;;3.58;3.28;;;13.80;99.90;;;;;;5035962;28;20232;-77
2023/10/25 10:22:11;;;;;;;3.10;2.90;;;13.90;99.90;;;;;;5034164;28;20200;-78
2023/10/25 10:24:39;;;;;;;3.08;2.83;;;14.00;99.90;;;;;;5034809;28;20201;-76
2023/10/25 10:27:06;;;;;;;2.60;2.40;;;14.00;99.90;;;;;;5039049;28;20201;-78
2023/10/25 10:29:45;;;;;;;2.83;2.30;;;14.10;99.90;;;;;;5033306;28;20268;-77
2023/10/25 10:32:12;;;;;;;1.70;1.60;;;14.20;99.90;;;;;;5035294;28;20202;-76
2023/10/25 10:34:45;;;;;;;2.42;2.33;;;14.20;99.90;;;;;;5032735;28;20199;-77
2023/10/25 10:37:13;;;;;;;2.38;2.20;;;14.20;99.90;;;;;;5042395;28;20207;-76
2023/10/25 10:40:14;;;;;;;3.35;2.08;;;14.20;99.90;;;;;;5030316;28;20232;-76
2023/10/25 10:42:41;;;;;;;2.28;2.17;;;14.10;99.90;;;;;;5036392;28;20294;-76
2023/10/25 10:45:13;;;;;;;2.30;2.20;;;14.00;99.90;;;;;;5039530;28;20214;-76
2023/10/25 10:47:42;;;;;;;1.83;1.73;;;13.90;99.90;;;;;;5031428;28;20199;-77
2023/10/25 10:50:11;;;;;;;2.83;2.00;;;13.80;99.90;;;;;;5036889;28;20269;-76
2023/10/25 10:52:39;;;;;;;2.05;1.80;;;13.80;99.90;;;;;;5037747;28;20257;-78
2023/10/25 10:55:08;;;;;;;2.67;1.50;;;13.80;99.90;;;;;;5034532;28;20285;-76
2023/10/25 10:57:37;;;;;;;1.95;1.85;;;13.80;99.90;;;;;;5034509;28;20206;-76
2023/10/25 11:00:07;;;;;;;2.00;1.90;;;13.90;99.90;;;;;;5037109;28;20663;-76
2023/10/25 11:02:37;;;;;;;2.10;2.00;;;14.00;99.90;;;;;;5035788;28;20984;-77
2023/10/25 11:05:04;;;;;;;1.67;1.58;;;14.10;99.90;;;;;;5036873;28;20201;-76
2023/10/25 11:07:31;;;;;;;1.83;1.73;;;14.20;99.90;;;;;;5037640;28;20252;-75
2023/10/25 11:09:58;;;;;;;2.00;1.90;;;14.20;99.90;;;;;;5035209;28;20223;-76
2023/10/25 11:12:26;;;;;;;2.22;2.13;;;14.30;99.90;;;;;;5036944;28;20309;-76
2023/10/25 11:14:53;;;;;;;2.38;2.22;;;14.30;99.90;;;;;;5033973;28;20277;-75
2023/10/25 11:17:21;;;;;;;2.10;2.00;;;14.30;99.90;;;;;;5036843;28;20271;-75
2023/10/25 11:19:49;;;;;;;2.15;2.05;;;14.30;99.90;;;;;;5035646;28;20214;-75
2023/10/25 11:22:16;;;;;;;2.10;2.00;;;14.40;99.90;;;;;;5037127;28;20199;-76
2023/10/25 11:24:43;;;;;;;2.30;2.20;;;14.50;99.90;;;;;;5036358;28;20195;-76
2023/10/25 11:27:10;;;;;;;2.10;2.00;;;14.60;99.90;;;;;;5047986;28;20211;-76
2023/10/25 11:29:38;;;;;;;2.60;2.40;;;14.60;99.90;;;;;;5039387;28;20225;-76
2023/10/25 11:32:11;;;;;;;2.00;1.90;;;14.60;99.90;;;;;;5041532;28;20345;-76
2023/10/25 11:34:42;;;;;;;2.95;2.45;;;14.60;99.90;;;;;;5040415;28;20696;-75
2023/10/25 11:37:12;;;;;;;2.05;1.88;;;14.60;99.90;;;;;;5039408;28;20203;-76
2023/10/25 11:39:59;;;;;;;2.55;2.00;;;14.60;99.90;;;;;;5038334;28;20764;-75
2023/10/25 11:42:27;;;;;;;1.85;1.75;;;14.60;99.90;;;;;;5039379;28;20202;-76
2023/10/25 11:44:55;;;;;;;2.20;2.00;;;14.60;99.90;;;;;;5034771;28;20472;-75
2023/10/25 11:47:22;;;;;;;2.22;2.13;;;14.60;99.90;;;;;;5038420;28;20200;-75
2023/10/25 11:49:53;;;;;;;1.80;1.70;;;14.60;99.90;;;;;;5037665;28;20959;-76
2023/10/25 11:52:25;;;;;;;1.95;1.63;;;14.80;99.90;;;;;;5036764;28;20243;-75
2023/10/25 11:54:56;;;;;;;1.95;1.85;;;15.10;99.90;;;;;;5036079;28;20196;-76
2023/10/25 11:57:24;;;;;;;1.85;1.75;;;15.70;99.90;;;;;;5041826;28;20203;-75
2023/10/25 11:59:51;;;;;;;2.00;1.80;;;15.80;99.90;;;;;;5030493;28;20281;-75
2023/10/25 12:02:20;;;;;;;2.58;1.90;;;15.80;99.90;;;;;;5034625;28;20203;-75
2023/10/25 12:04:47;;;;;;;2.00;1.90;;;15.70;99.90;;;;;;5034061;28;20298;-74
2023/10/25 12:07:14;;;;;;;1.95;1.85;;;15.80;99.90;;;;;;5030718;28;20659;-76
2023/10/25 12:09:45;;;;;;;2.10;2.00;;;15.90;99.90;;;;;;5032646;28;20230;-76
2023/10/25 12:12:12;;;;;;;1.92;1.83;;;16.20;99.90;;;;;;5033655;28;20360;-76
2023/10/25 12:14:39;;;;;;;2.00;1.90;;;16.40;99.90;;;;;;5030817;28;20282;-77
2023/10/25 12:17:06;;;;;;;2.00;1.90;;;16.40;99.90;;;;;;5031066;28;20858;-76
2023/10/25 12:19:35;;;;;;;2.67;1.73;;;16.40;99.90;;;;;;5032601;28;20310;-76
2023/10/25 12:22:05;;;;;;;2.17;1.88;;;16.60;99.90;;;;;;5031978;28;20219;-75
2023/10/25 12:24:32;;;;;;;2.10;2.00;;;17.10;99.90;;;;;;5027629;28;20811;-76
2023/10/25 12:27:00;;;;;;;3.10;1.90;;;17.50;99.90;;;;;;5034674;28;20261;-75
2023/10/25 12:29:28;;;;;;;2.00;1.90;;;17.70;99.90;;;;;;5033649;28;20234;-76
2023/10/25 12:31:55;;;;;;;1.77;1.67;;;17.70;99.90;;;;;;5032956;28;20196;-76
2023/10/25 12:34:22;;;;;;;1.70;1.60;;;17.80;99.90;;;;;;5029993;28;20253;-75
2023/10/25 12:36:50;;;;;;;1.55;1.50;;;18.00;99.90;;;;;;5036216;28;20226;-76
2023/10/25 12:39:17;;;;;;;2.17;1.40;;;18.30;99.90;;;;;;5039218;28;20265;-75
2023/10/25 12:41:45;;;;;;;1.40;1.40;;;18.40;99.90;;;;;;5035763;28;20276;-75
2023/10/25 12:44:13;;;;;;;1.60;1.50;;;18.50;99.90;;;;;;5036649;28;20256;-76
2023/10/25 12:46:40;;;;;;;1.45;1.27;;;18.50;99.90;;;;;;5037504;28;20198;-75
2023/10/25 12:49:07;;;;;;;1.60;1.33;;;18.50;99.90;;;;;;5036861;28;20769;-74
2023/10/25 12:51:34;;;;;;;2.58;1.60;;;18.70;99.90;;;;;;5037801;28;20848;-76